Time;durP1;ratioP1;P1;durP2;ratioP2;P2;SDS_P1;SDS_P2;PMS_P1;PMS_P2;Temp;Humidity;BMP_temperature;BMP_pressure;BME280_temperature;BME280_humidity;BME280_pressure;Samples;Min_cycle;Max_cycle;Signal;HPM_P1;HPM_P2
2023/10/07 00:00:54;;;;;;;7.68;5.78;;;11.30;99.90;;;;;;5095941;28;20196;-85
2023/10/07 00:03:23;;;;;;;7.32;5.88;;;11.20;99.90;;;;;;5104358;28;20196;-85
2023/10/07 00:05:52;;;;;;;8.85;5.80;;;11.20;99.90;;;;;;5099766;27;20204;-85
2023/10/07 00:08:20;;;;;;;8.63;5.68;;;11.10;99.90;;;;;;5096081;28;20201;-85
2023/10/07 00:10:48;;;;;;;6.00;5.20;;;11.00;99.90;;;;;;5101950;28;20283;-85
2023/10/07 00:13:23;;;;;;;7.53;5.50;;;11.00;99.90;;;;;;5099162;28;20192;-85
2023/10/07 00:15:51;;;;;;;8.63;5.53;;;11.00;99.90;;;;;;5098233;27;20192;-85
2023/10/07 00:18:19;;;;;;;8.73;5.25;;;11.00;99.90;;;;;;5102763;28;20216;-85
2023/10/07 00:20:49;;;;;;;9.45;5.80;;;11.00;99.90;;;;;;5101991;28;20241;-85
2023/10/07 00:23:26;;;;;;;8.32;5.25;;;10.90;99.90;;;;;;5104507;27;20226;-85
2023/10/07 00:25:54;;;;;;;6.65;5.60;;;10.80;99.90;;;;;;5100011;28;20215;-85
2023/10/07 00:28:28;;;;;;;8.35;5.97;;;10.80;99.90;;;;;;5096422;28;20201;-86
2023/10/07 00:31:02;;;;;;;8.77;5.90;;;10.70;99.90;;;;;;5106125;28;20241;-85
2023/10/07 00:33:30;;;;;;;7.15;5.85;;;10.70;99.90;;;;;;5099534;28;20196;-85
2023/10/07 00:36:04;;;;;;;8.02;5.78;;;10.70;99.90;;;;;;5098922;28;20204;-85
2023/10/07 00:38:37;;;;;;;10.30;5.88;;;10.60;99.90;;;;;;5102123;28;20834;-85
2023/10/07 00:41:05;;;;;;;7.45;5.38;;;10.60;99.90;;;;;;5107093;27;20196;-85
2023/10/07 00:43:36;;;;;;;8.38;6.03;;;10.60;99.90;;;;;;5103637;28;20203;-85
2023/10/07 00:46:10;;;;;;;7.47;5.43;;;10.60;99.90;;;;;;5093113;28;20279;-85
2023/10/07 00:48:46;;;;;;;7.13;5.68;;;10.60;99.90;;;;;;5095070;28;20311;-85
2023/10/07 00:51:17;;;;;;;6.78;5.38;;;10.60;99.90;;;;;;5097372;27;20295;-86
2023/10/07 00:53:46;;;;;;;9.20;6.13;;;10.60;99.90;;;;;;5099609;27;20207;-85
2023/10/07 00:56:15;;;;;;;7.03;5.47;;;10.60;99.90;;;;;;5105984;27;20261;-85
2023/10/07 00:58:46;;;;;;;6.35;5.55;;;10.50;99.90;;;;;;5100727;28;20200;-85
2023/10/07 01:01:13;;;;;;;8.35;5.85;;;10.50;99.90;;;;;;5096026;28;20193;-86
2023/10/07 01:03:48;;;;;;;6.93;5.10;;;10.50;99.90;;;;;;5092129;28;20192;-85
2023/10/07 01:06:25;;;;;;;7.47;5.72;;;10.50;99.90;;;;;;5098327;27;20245;-85
2023/10/07 01:08:58;;;;;;;8.38;5.70;;;10.50;99.90;;;;;;5102031;27;20204;-85
2023/10/07 01:11:29;;;;;;;7.88;5.15;;;10.50;99.90;;;;;;5091338;28;20204;-85
2023/10/07 01:14:00;;;;;;;7.05;5.15;;;10.50;99.90;;;;;;5097158;28;20207;-86
2023/10/07 01:16:41;;;;;;;6.90;5.50;;;10.50;99.90;;;;;;5095103;28;20210;-85
2023/10/07 01:19:19;;;;;;;6.72;5.32;;;10.40;99.90;;;;;;5096496;28;20648;-85
2023/10/07 01:21:54;;;;;;;7.20;5.30;;;10.40;99.90;;;;;;5098803;27;20209;-86
2023/10/07 01:24:44;;;;;;;7.55;5.63;;;10.30;99.90;;;;;;5100426;28;20196;-86
2023/10/07 01:27:18;;;;;;;7.95;5.43;;;10.40;99.90;;;;;;5089775;28;20676;-85
2023/10/07 01:29:48;;;;;;;8.30;5.75;;;10.30;99.90;;;;;;5100389;28;20195;-86
2023/10/07 01:32:16;;;;;;;7.30;5.00;;;10.30;99.90;;;;;;5091192;28;20193;-85
2023/10/07 01:34:47;;;;;;;7.72;5.57;;;10.30;99.90;;;;;;5105274;28;20281;-85
2023/10/07 01:37:15;;;;;;;7.60;5.40;;;10.20;99.90;;;;;;5099328;28;20207;-85
2023/10/07 01:39:44;;;;;;;8.10;5.65;;;10.20;99.90;;;;;;5102504;28;20278;-85
2023/10/07 01:42:14;;;;;;;8.18;5.25;;;10.20;99.90;;;;;;5099962;28;20203;-85
2023/10/07 01:44:41;;;;;;;6.68;5.57;;;10.10;99.90;;;;;;5095306;28;20540;-85
2023/10/07 01:47:23;;;;;;;7.80;5.50;;;10.10;99.90;;;;;;5097066;28;20660;-85
2023/10/07 01:49:53;;;;;;;8.73;5.40;;;10.10;99.90;;;;;;5083423;28;20622;-85
2023/10/07 01:52:21;;;;;;;6.20;5.20;;;10.10;99.90;;;;;;5109109;28;20254;-85
2023/10/07 01:54:52;;;;;;;9.55;5.95;;;10.10;99.90;;;;;;5097798;28;20204;-86
2023/10/07 01:57:19;;;;;;;6.95;5.43;;;10.00;99.90;;;;;;5088165;28;20278;-85
2023/10/07 01:59:46;;;;;;;7.07;5.43;;;10.10;99.90;;;;;;5097508;28;20199;-85
2023/10/07 02:02:15;;;;;;;8.88;5.60;;;10.00;99.90;;;;;;5087196;28;20201;-85
2023/10/07 02:04:42;;;;;;;7.80;5.30;;;10.00;99.90;;;;;;5096862;28;20192;-85
2023/10/07 02:07:09;;;;;;;8.50;5.03;;;10.00;99.90;;;;;;5099438;28;20206;-85
2023/10/07 02:09:40;;;;;;;8.30;5.57;;;9.90;99.90;;;;;;5099994;28;20196;-85
2023/10/07 02:12:09;;;;;;;11.63;5.60;;;9.90;99.90;;;;;;5101444;28;20196;-85
2023/10/07 02:14:37;;;;;;;8.00;5.13;;;9.90;99.90;;;;;;5101509;28;20248;-85
2023/10/07 02:17:06;;;;;;;6.30;5.00;;;9.80;99.90;;;;;;5098599;28;21431;-86
2023/10/07 02:19:33;;;;;;;7.13;5.35;;;9.80;99.90;;;;;;5104311;28;20547;-85
2023/10/07 02:22:03;;;;;;;8.63;5.43;;;9.80;99.90;;;;;;5101124;28;20201;-85
2023/10/07 02:24:31;;;;;;;9.55;5.97;;;9.70;99.90;;;;;;5105669;28;20295;-85
2023/10/07 02:27:04;;;;;;;8.88;5.50;;;9.70;99.90;;;;;;5097746;28;20193;-85
2023/10/07 02:29:33;;;;;;;6.65;5.10;;;9.70;99.90;;;;;;5100621;28;20600;-85
2023/10/07 02:32:14;;;;;;;8.10;5.53;;;9.70;99.90;;;;;;5106855;28;20219;-85
2023/10/07 02:34:52;;;;;;;7.07;5.30;;;9.70;99.90;;;;;;5096361;28;20590;-85
2023/10/07 02:37:21;;;;;;;6.78;5.20;;;9.60;99.90;;;;;;5097786;28;20212;-85
2023/10/07 02:39:48;;;;;;;5.80;4.88;;;9.50;99.90;;;;;;5097751;28;20215;-85
2023/10/07 02:42:21;;;;;;;7.85;5.50;;;9.50;99.90;;;;;;5105462;27;20224;-85
2023/10/07 02:45:01;;;;;;;7.50;5.45;;;9.50;99.90;;;;;;5104576;27;20200;-85
2023/10/07 02:47:31;;;;;;;6.45;5.57;;;9.40;99.90;;;;;;5105015;27;20209;-85
2023/10/07 02:50:00;;;;;;;7.50;5.70;;;9.30;99.90;;;;;;5100965;27;20537;-85
2023/10/07 02:52:36;;;;;;;7.25;5.53;;;9.20;99.90;;;;;;5109761;28;20821;-85
2023/10/07 02:55:27;;;;;;;7.90;5.57;;;9.20;99.90;;;;;;5102370;28;20835;-85
2023/10/07 02:57:56;;;;;;;8.43;5.35;;;9.10;99.90;;;;;;5093530;28;20215;-85
2023/10/07 03:00:35;;;;;;;7.95;5.57;;;9.10;99.90;;;;;;5101159;27;20204;-85
2023/10/07 03:03:18;;;;;;;8.07;5.53;;;9.10;99.90;;;;;;5097220;28;20199;-85
2023/10/07 03:05:46;;;;;;;9.45;5.40;;;9.10;99.90;;;;;;5097103;27;20219;-85
2023/10/07 03:08:19;;;;;;;7.05;5.55;;;9.10;99.90;;;;;;5099532;27;20540;-85
2023/10/07 03:10:54;;;;;;;7.15;5.63;;;9.00;99.90;;;;;;5093177;28;20201;-85
2023/10/07 03:13:23;;;;;;;6.68;5.05;;;9.00;99.90;;;;;;5098705;28;20614;-85
2023/10/07 03:18:32;;;;;;;6.47;5.07;;;9.00;99.90;;;;;;5101823;28;20738;-85
2023/10/07 03:21:06;;;;;;;7.07;5.40;;;9.10;99.90;;;;;;5097654;28;20668;-84
2023/10/07 03:23:36;;;;;;;8.52;5.28;;;9.10;99.90;;;;;;5104400;27;20201;-85
2023/10/07 03:26:12;;;;;;;6.93;5.32;;;9.10;99.90;;;;;;5095658;28;20189;-85
2023/10/07 03:28:51;;;;;;;7.90;5.30;;;9.10;99.90;;;;;;5100602;28;20254;-85
2023/10/07 03:31:27;;;;;;;5.45;4.78;;;9.00;99.90;;;;;;5094627;27;20198;-85
2023/10/07 03:33:58;;;;;;;7.32;5.20;;;9.00;99.90;;;;;;5096426;28;20203;-85
2023/10/07 03:36:45;;;;;;;7.38;5.28;;;8.90;99.90;;;;;;5097594;27;20269;-85
2023/10/07 03:39:42;;;;;;;6.57;5.03;;;8.90;99.90;;;;;;5108437;28;20212;-85
2023/10/07 03:42:09;;;;;;;6.72;4.88;;;9.00;99.90;;;;;;5105920;28;20287;-85
2023/10/07 03:44:37;;;;;;;9.00;5.82;;;9.00;99.90;;;;;;5101648;28;20652;-85
2023/10/07 03:47:10;;;;;;;6.97;5.07;;;9.00;99.90;;;;;;5105522;28;20584;-85
2023/10/07 03:49:39;;;;;;;6.50;5.25;;;9.00;99.90;;;;;;5103821;28;20200;-85
2023/10/07 03:52:08;;;;;;;7.45;5.57;;;8.80;99.90;;;;;;5107698;27;20222;-85
2023/10/07 03:54:35;;;;;;;7.03;5.35;;;8.80;99.90;;;;;;5101407;28;20196;-85
2023/10/07 03:57:02;;;;;;;9.27;5.18;;;8.70;99.90;;;;;;5099756;27;20207;-85
2023/10/07 03:59:34;;;;;;;6.80;5.18;;;8.70;99.90;;;;;;5095671;27;20282;-85
2023/10/07 04:02:12;;;;;;;5.70;4.78;;;8.60;99.90;;;;;;5105257;28;20203;-85
2023/10/07 04:04:41;;;;;;;6.32;4.70;;;8.70;99.90;;;;;;5109128;28;20208;-85
2023/10/07 04:07:08;;;;;;;6.03;4.78;;;8.70;99.90;;;;;;5103648;28;20204;-85
2023/10/07 04:09:35;;;;;;;6.47;4.95;;;8.70;99.90;;;;;;5102735;28;20791;-85
2023/10/07 04:12:06;;;;;;;6.63;5.03;;;8.60;99.90;;;;;;5107418;27;20291;-85
2023/10/07 04:14:35;;;;;;;7.18;5.00;;;8.60;99.90;;;;;;5108447;27;20195;-84
2023/10/07 04:17:06;;;;;;;7.90;4.90;;;8.60;99.90;;;;;;5101410;28;20288;-85
2023/10/07 04:19:38;;;;;;;7.13;5.10;;;8.60;99.90;;;;;;5097016;28;20219;-85
2023/10/07 04:22:09;;;;;;;6.93;5.20;;;8.60;99.90;;;;;;5077701;28;20653;-85
2023/10/07 04:24:38;;;;;;;9.07;5.55;;;8.50;99.90;;;;;;5109432;27;20196;-85
2023/10/07 04:27:06;;;;;;;6.43;5.10;;;8.50;99.90;;;;;;5109178;27;20193;-85
2023/10/07 04:29:33;;;;;;;8.75;5.15;;;8.40;99.90;;;;;;5103073;28;20769;-85
2023/10/07 04:32:14;;;;;;;6.45;4.75;;;8.40;99.90;;;;;;5104628;28;20838;-85
2023/10/07 04:35:00;;;;;;;7.53;4.90;;;8.40;99.90;;;;;;5112137;27;20192;-85
2023/10/07 04:37:47;;;;;;;7.05;5.35;;;8.30;99.90;;;;;;5107484;27;20197;-85
2023/10/07 04:43:25;;;;;;;9.63;5.00;;;8.30;99.90;;;;;;5095564;28;20318;-85
2023/10/07 04:45:50;;;;;;;8.10;4.78;;;8.20;99.90;;;;;;5103388;27;20250;-85
2023/10/07 04:48:40;;;;;;;6.53;4.95;;;8.20;99.90;;;;;;5085263;28;20253;-85
2023/10/07 04:51:12;;;;;;;7.13;5.13;;;8.10;99.90;;;;;;5093473;28;20224;-85
2023/10/07 04:53:43;;;;;;;6.60;4.70;;;8.10;99.90;;;;;;5095541;28;20202;-85
2023/10/07 04:56:10;;;;;;;7.97;5.25;;;8.20;99.90;;;;;;5080957;28;20291;-85
2023/10/07 04:58:39;;;;;;;4.32;3.92;;;8.10;99.90;;;;;;5099150;27;20220;-85
2023/10/07 05:01:06;;;;;;;6.95;5.10;;;8.10;99.90;;;;;;5107260;28;20207;-85
2023/10/07 05:03:34;;;;;;;7.25;5.30;;;8.00;99.90;;;;;;5094275;27;20200;-84
2023/10/07 05:06:00;;;;;;;7.03;4.68;;;7.90;99.90;;;;;;5097186;28;20201;-85
2023/10/07 05:08:28;;;;;;;8.55;5.32;;;7.90;99.90;;;;;;5099412;28;20218;-85
2023/10/07 05:11:04;;;;;;;8.48;5.00;;;7.80;99.90;;;;;;5098894;28;20196;-85
2023/10/07 05:13:33;;;;;;;7.38;4.75;;;7.80;99.90;;;;;;5096214;28;20290;-85
2023/10/07 05:15:59;;;;;;;6.68;4.63;;;7.80;99.90;;;;;;5099271;28;20224;-85
2023/10/07 05:18:26;;;;;;;6.32;5.22;;;7.70;99.90;;;;;;5098974;28;20677;-85
2023/10/07 05:20:52;;;;;;;6.05;4.95;;;7.70;99.90;;;;;;5098461;28;20192;-85
2023/10/07 05:23:19;;;;;;;7.38;4.88;;;7.70;99.90;;;;;;5098278;28;20207;-85
2023/10/07 05:25:49;;;;;;;6.45;4.78;;;7.70;99.90;;;;;;5096255;28;20204;-85
2023/10/07 05:28:20;;;;;;;7.63;4.88;;;7.60;99.90;;;;;;5107065;28;20264;-85
2023/10/07 05:30:51;;;;;;;6.32;4.88;;;7.60;99.90;;;;;;5104330;28;20284;-85
2023/10/07 05:33:20;;;;;;;6.90;5.28;;;7.70;99.90;;;;;;5103607;28;20199;-85
2023/10/07 05:35:49;;;;;;;6.72;5.22;;;7.70;99.90;;;;;;5114131;28;20240;-85
2023/10/07 05:38:17;;;;;;;7.63;5.35;;;7.80;99.90;;;;;;5105758;28;20708;-85
2023/10/07 05:40:46;;;;;;;6.72;5.00;;;7.90;99.90;;;;;;5103239;28;20651;-85
2023/10/07 05:43:13;;;;;;;7.25;5.07;;;8.00;99.90;;;;;;5097448;28;20645;-84
2023/10/07 05:45:41;;;;;;;6.53;5.60;;;8.00;99.90;;;;;;5100927;27;20195;-84
2023/10/07 05:48:10;;;;;;;9.55;5.20;;;8.10;99.90;;;;;;5095221;28;20204;-84
2023/10/07 05:50:38;;;;;;;8.70;5.20;;;8.00;99.90;;;;;;5102157;28;20222;-84
2023/10/07 05:53:06;;;;;;;7.15;5.63;;;8.00;99.90;;;;;;5086261;28;20200;-84
2023/10/07 05:55:33;;;;;;;7.22;5.47;;;8.00;99.90;;;;;;5088112;28;20207;-84
2023/10/07 05:58:01;;;;;;;7.70;5.57;;;8.10;99.90;;;;;;5093641;28;20228;-84
2023/10/07 06:00:31;;;;;;;7.47;5.60;;;8.10;99.90;;;;;;5097724;28;20224;-85
2023/10/07 06:03:02;;;;;;;7.88;5.20;;;8.20;99.90;;;;;;5100786;28;20613;-86
2023/10/07 06:05:29;;;;;;;9.05;5.47;;;8.20;99.90;;;;;;5092143;28;20656;-86
2023/10/07 06:07:57;;;;;;;8.27;5.40;;;8.20;99.90;;;;;;5097960;28;20202;-86
2023/10/07 06:10:24;;;;;;;8.15;5.03;;;8.20;99.90;;;;;;5107133;28;20294;-86
2023/10/07 06:12:51;;;;;;;6.70;5.35;;;8.20;99.90;;;;;;5103476;27;20204;-85
2023/10/07 06:15:18;;;;;;;6.32;5.35;;;8.20;99.90;;;;;;5116985;27;20196;-84
2023/10/07 06:17:45;;;;;;;6.68;5.20;;;8.20;99.90;;;;;;5102943;28;20969;-82
2023/10/07 06:20:15;;;;;;;7.65;5.65;;;8.20;99.90;;;;;;5100141;28;20201;-83
2023/10/07 06:22:50;;;;;;;8.13;5.50;;;8.30;99.90;;;;;;5092990;27;20199;-83
2023/10/07 06:25:17;;;;;;;6.22;5.20;;;8.50;99.90;;;;;;5094969;28;20566;-83
2023/10/07 06:27:45;;;;;;;9.88;5.20;;;8.80;99.90;;;;;;5102263;28;20220;-84
2023/10/07 06:30:21;;;;;;;9.68;5.30;;;8.90;99.90;;;;;;5102133;28;20191;-83
2023/10/07 06:32:55;;;;;;;6.90;5.00;;;9.00;99.90;;;;;;5098100;27;20606;-84
2023/10/07 06:35:24;;;;;;;6.57;5.57;;;8.90;99.90;;;;;;5104855;27;20526;-84
2023/10/07 06:37:52;;;;;;;9.18;5.60;;;9.00;99.90;;;;;;5104610;27;20232;-86
2023/10/07 06:40:28;;;;;;;7.10;5.13;;;9.10;99.90;;;;;;5104291;27;20628;-84
2023/10/07 06:42:55;;;;;;;8.02;5.85;;;9.10;99.90;;;;;;5107264;27;20187;-84
2023/10/07 06:45:23;;;;;;;7.32;4.82;;;9.20;99.90;;;;;;5114562;27;20291;-85
2023/10/07 06:47:49;;;;;;;8.93;5.70;;;9.20;99.90;;;;;;5112221;27;20192;-84
2023/10/07 06:50:19;;;;;;;7.75;5.18;;;9.40;99.90;;;;;;5121073;27;20203;-85
2023/10/07 06:52:49;;;;;;;7.10;5.10;;;9.70;99.90;;;;;;5100294;28;20200;-84
2023/10/07 06:55:16;;;;;;;8.02;5.75;;;9.80;99.90;;;;;;5096311;27;20202;-84
2023/10/07 06:57:47;;;;;;;6.95;5.22;;;9.80;99.90;;;;;;5097928;28;20656;-85
2023/10/07 07:00:23;;;;;;;7.75;5.03;;;9.90;99.90;;;;;;5105909;27;20250;-84
2023/10/07 07:02:57;;;;;;;5.38;4.45;;;10.00;99.90;;;;;;5104012;27;20208;-85
2023/10/07 07:05:25;;;;;;;5.93;4.70;;;10.10;99.90;;;;;;5102440;28;20200;-85
2023/10/07 07:07:53;;;;;;;5.80;4.38;;;10.30;99.90;;;;;;5100382;27;20208;-85
2023/10/07 07:10:27;;;;;;;7.25;4.55;;;10.40;99.90;;;;;;5105910;28;20620;-85
2023/10/07 07:12:58;;;;;;;5.93;4.45;;;10.50;99.90;;;;;;5099353;27;20557;-85
2023/10/07 07:15:28;;;;;;;9.07;4.45;;;10.60;99.90;;;;;;5095702;28;20279;-85
2023/10/07 07:18:05;;;;;;;4.43;4.03;;;10.70;99.90;;;;;;5102195;28;20196;-84
2023/10/07 07:20:48;;;;;;;9.15;4.40;;;10.70;99.90;;;;;;5113012;27;20215;-85
2023/10/07 07:23:22;;;;;;;5.88;4.38;;;10.90;99.90;;;;;;5105581;27;20276;-84
2023/10/07 07:25:59;;;;;;;5.70;4.50;;;11.00;99.90;;;;;;5103990;28;20205;-84
2023/10/07 07:28:27;;;;;;;5.65;4.30;;;11.10;99.90;;;;;;5103550;28;20204;-85
2023/10/07 07:30:57;;;;;;;7.10;4.35;;;11.30;99.90;;;;;;5103028;27;20196;-85
2023/10/07 07:33:28;;;;;;;6.50;4.55;;;11.40;99.90;;;;;;5107831;27;20284;-85
2023/10/07 07:35:56;;;;;;;6.78;4.18;;;11.60;99.90;;;;;;5098647;27;20220;-85
2023/10/07 07:38:29;;;;;;;5.88;4.25;;;11.80;99.90;;;;;;5102914;27;20622;-84
2023/10/07 07:41:05;;;;;;;8.43;4.53;;;11.90;99.70;;;;;;5105912;28;20220;-84
2023/10/07 07:43:33;;;;;;;6.75;4.05;;;12.10;99.20;;;;;;5101003;28;20204;-84
2023/10/07 07:46:26;;;;;;;6.07;3.85;;;12.20;98.70;;;;;;5099011;27;20242;-85
2023/10/07 07:48:53;;;;;;;5.60;4.00;;;12.40;97.90;;;;;;5106694;27;20211;-83
2023/10/07 07:51:24;;;;;;;6.38;4.03;;;12.60;97.40;;;;;;5111329;27;20215;-85
2023/10/07 07:53:53;;;;;;;7.45;3.80;;;12.70;96.90;;;;;;5099578;28;20222;-85
2023/10/07 07:56:20;;;;;;;6.68;4.10;;;12.90;95.80;;;;;;5102178;28;20200;-82
2023/10/07 07:58:48;;;;;;;6.63;3.85;;;13.10;95.20;;;;;;5103887;27;20672;-84
2023/10/07 08:01:18;;;;;;;5.32;3.95;;;13.30;94.70;;;;;;5109690;27;20245;-83
2023/10/07 08:03:47;;;;;;;5.20;3.50;;;13.40;93.80;;;;;;5103303;28;20206;-84
2023/10/07 08:06:19;;;;;;;6.15;4.18;;;13.50;93.80;;;;;;5104481;28;20192;-83
2023/10/07 08:08:47;;;;;;;5.20;3.40;;;13.70;93.70;;;;;;5106444;28;20204;-83
2023/10/07 08:11:17;;;;;;;5.57;3.78;;;13.80;93.00;;;;;;5109577;27;20196;-83
2023/10/07 08:13:45;;;;;;;6.13;3.90;;;13.90;92.40;;;;;;5101126;27;20184;-83
2023/10/07 08:16:18;;;;;;;6.15;3.90;;;14.10;91.70;;;;;;5111982;28;20212;-84
2023/10/07 08:18:48;;;;;;;5.22;3.63;;;14.30;90.20;;;;;;5100817;28;20224;-83
2023/10/07 08:21:16;;;;;;;4.82;3.63;;;14.50;89.90;;;;;;5101437;27;20200;-85
2023/10/07 08:23:46;;;;;;;6.47;3.60;;;14.70;89.60;;;;;;5082614;28;20813;-86
2023/10/07 08:26:20;;;;;;;7.13;4.35;;;14.90;85.10;;;;;;5101449;27;20463;-86
2023/10/07 08:29:00;;;;;;;6.75;3.65;;;15.10;80.40;;;;;;5107378;27;20287;-85
2023/10/07 08:31:37;;;;;;;7.10;4.07;;;15.20;81.00;;;;;;5105513;27;20239;-84
2023/10/07 08:34:09;;;;;;;5.20;3.80;;;15.40;78.30;;;;;;5103239;28;20206;-84
2023/10/07 08:36:38;;;;;;;7.40;4.05;;;15.60;71.00;;;;;;5091763;28;20196;-85
2023/10/07 08:39:08;;;;;;;5.60;3.60;;;15.80;58.80;;;;;;5096488;28;20216;-84
2023/10/07 08:41:37;;;;;;;5.50;3.50;;;16.00;59.10;;;;;;5111550;27;20195;-84
2023/10/07 08:44:13;;;;;;;7.18;3.72;;;16.00;58.60;;;;;;5099708;28;20280;-84
2023/10/07 08:46:40;;;;;;;7.88;4.00;;;16.10;53.00;;;;;;5094080;28;20207;-84
2023/10/07 08:49:13;;;;;;;6.47;4.20;;;16.20;55.10;;;;;;5105878;27;20200;-85
2023/10/07 08:51:42;;;;;;;6.18;4.00;;;16.40;53.30;;;;;;5100662;27;20303;-85
2023/10/07 08:54:17;;;;;;;7.43;3.90;;;16.70;48.40;;;;;;5107385;27;20189;-84
2023/10/07 08:56:54;;;;;;;8.07;3.65;;;16.80;46.00;;;;;;5096614;28;20199;-84
2023/10/07 08:59:24;;;;;;;7.43;4.20;;;17.00;43.00;;;;;;5103973;27;20223;-84
2023/10/07 09:01:57;;;;;;;6.03;4.10;;;17.50;39.30;;;;;;5106432;28;20226;-82
2023/10/07 09:04:25;;;;;;;5.38;3.75;;;17.80;35.70;;;;;;5105498;27;20203;-83
2023/10/07 09:06:52;;;;;;;7.15;3.95;;;18.10;35.10;;;;;;5103978;28;20231;-83
2023/10/07 09:09:37;;;;;;;6.90;4.00;;;18.70;31.30;;;;;;5114180;27;20197;-84
2023/10/07 09:12:11;;;;;;;7.05;4.05;;;19.50;28.80;;;;;;5111539;27;20201;-84
2023/10/07 09:14:46;;;;;;;5.95;4.43;;;20.10;22.20;;;;;;5107249;28;20203;-82
2023/10/07 09:17:13;;;;;;;5.28;4.70;;;21.50;19.90;;;;;;5105768;28;20286;-86
2023/10/07 09:19:43;;;;;;;6.75;4.32;;;23.00;17.90;;;;;;5100837;28;20215;-86
2023/10/07 09:22:11;;;;;;;6.80;4.15;;;24.40;13.80;;;;;;5094735;28;20199;-86
2023/10/07 09:24:42;;;;;;;5.78;4.22;;;25.10;12.00;;;;;;5107321;28;20190;-86
2023/10/07 09:27:13;;;;;;;6.15;4.45;;;26.00;9.90;;;;;;5092574;28;20200;-86
2023/10/07 09:29:45;;;;;;;4.75;4.25;;;26.50;7.70;;;;;;5106326;28;20200;-86
2023/10/07 09:32:21;;;;;;;6.32;4.93;;;26.60;8.70;;;;;;5100886;28;20195;-86
2023/10/07 09:34:48;;;;;;;5.60;4.60;;;26.50;6.50;;;;;;5106447;28;20852;-86
2023/10/07 09:37:21;;;;;;;9.20;5.47;;;26.70;8.50;;;;;;5103847;28;20249;-86
2023/10/07 09:39:55;;;;;;;5.53;5.00;;;26.90;6.90;;;;;;5107607;28;20219;-87
2023/10/07 09:42:35;;;;;;;5.72;5.15;;;26.30;7.90;;;;;;5097693;28;20197;-86
2023/10/07 09:45:17;;;;;;;8.85;5.15;;;26.30;7.50;;;;;;5106146;28;20276;-88
2023/10/07 09:47:44;;;;;;;6.40;5.00;;;26.50;7.90;;;;;;5098656;28;20200;-89
2023/10/07 09:50:19;;;;;;;7.22;5.32;;;26.50;8.10;;;;;;5102623;27;20195;-89
2023/10/07 09:52:51;;;;;;;6.85;5.07;;;26.10;7.60;;;;;;5110388;28;20211;-87
2023/10/07 09:55:40;;;;;;;6.70;5.18;;;25.90;8.70;;;;;;5111230;27;20257;-87
2023/10/07 09:58:29;;;;;;;6.45;4.95;;;26.90;6.80;;;;;;5108749;27;20192;-87
2023/10/07 10:01:05;;;;;;;6.05;5.00;;;26.30;7.50;;;;;;5112611;27;20210;-88
2023/10/07 10:03:59;;;;;;;7.53;5.28;;;26.20;8.20;;;;;;5120430;27;20203;-88
2023/10/07 10:06:41;;;;;;;8.32;5.00;;;26.30;8.10;;;;;;5106822;27;20195;-87
2023/10/07 10:09:13;;;;;;;6.00;4.95;;;25.90;8.40;;;;;;5112607;27;20199;-87
2023/10/07 10:11:46;;;;;;;5.40;4.90;;;26.00;8.50;;;;;;5106459;28;20199;-86
2023/10/07 10:14:19;;;;;;;5.35;4.50;;;25.80;9.00;;;;;;5105886;27;20281;-86
2023/10/07 10:16:51;;;;;;;5.38;4.53;;;25.80;6.80;;;;;;5105957;27;20202;-86
2023/10/07 10:19:37;;;;;;;5.60;4.95;;;25.30;7.80;;;;;;5100235;28;20627;-87
2023/10/07 10:22:12;;;;;;;7.80;4.53;;;25.60;6.60;;;;;;5107682;28;20191;-87
2023/10/07 10:24:43;;;;;;;6.88;5.07;;;25.40;8.60;;;;;;5102226;27;20204;-86
2023/10/07 10:27:11;;;;;;;5.35;4.75;;;25.30;7.10;;;;;;5100324;28;20192;-86
2023/10/07 10:29:55;;;;;;;10.82;5.20;;;25.80;5.60;;;;;;5097080;28;20195;-86
2023/10/07 10:32:28;;;;;;;6.28;4.78;;;25.70;6.50;;;;;;5107067;27;20573;-86
2023/10/07 10:34:56;;;;;;;7.10;4.55;;;25.40;6.50;;;;;;5102310;27;20196;-86
2023/10/07 10:37:26;;;;;;;7.93;4.40;;;25.60;7.40;;;;;;5097425;28;20199;-86
2023/10/07 10:39:54;;;;;;;7.47;4.40;;;25.50;8.10;;;;;;5104495;27;20271;-83
2023/10/07 10:42:21;;;;;;;5.78;4.30;;;25.40;7.30;;;;;;5100184;27;20736;-84
2023/10/07 10:44:48;;;;;;;11.43;4.78;;;25.00;8.70;;;;;;5097383;27;20231;-83
2023/10/07 10:47:16;;;;;;;5.43;4.50;;;25.30;6.70;;;;;;5101361;27;20192;-84
2023/10/07 10:49:45;;;;;;;6.75;4.65;;;25.20;5.60;;;;;;5106031;28;20199;-83
2023/10/07 10:52:14;;;;;;;8.13;4.35;;;25.10;7.00;;;;;;5100251;27;20219;-84
2023/10/07 10:54:40;;;;;;;5.60;4.18;;;24.90;7.60;;;;;;5105957;27;20203;-83
2023/10/07 10:57:13;;;;;;;4.90;4.28;;;24.60;9.50;;;;;;5107453;28;20215;-84
2023/10/07 10:59:43;;;;;;;8.07;4.43;;;24.30;7.40;;;;;;5108211;28;20683;-85
2023/10/07 11:02:17;;;;;;;7.43;4.38;;;24.20;8.30;;;;;;5103164;28;20230;-80
2023/10/07 11:04:47;;;;;;;8.25;4.72;;;23.80;9.80;;;;;;5109144;27;20234;-82
2023/10/07 11:07:14;;;;;;;8.25;4.60;;;23.80;8.60;;;;;;5108179;27;20200;-84
2023/10/07 11:09:42;;;;;;;7.80;4.25;;;23.80;7.70;;;;;;5103237;28;20287;-86
2023/10/07 11:12:13;;;;;;;5.75;4.05;;;23.50;9.30;;;;;;5096598;27;20615;-85
2023/10/07 11:14:41;;;;;;;6.03;4.45;;;23.60;11.50;;;;;;5119477;27;20230;-84
2023/10/07 11:17:09;;;;;;;5.03;3.83;;;23.80;8.10;;;;;;5102705;27;20196;-84
2023/10/07 11:19:44;;;;;;;6.25;4.18;;;23.70;10.10;;;;;;5115752;27;20491;-84
2023/10/07 11:22:19;;;;;;;5.05;4.10;;;23.40;6.90;;;;;;5105393;27;20677;-84
2023/10/07 11:24:48;;;;;;;5.43;4.18;;;23.20;8.40;;;;;;5103774;27;20712;-84
2023/10/07 11:27:15;;;;;;;7.45;4.13;;;23.40;7.50;;;;;;5100125;28;20622;-82
2023/10/07 11:29:43;;;;;;;6.00;4.18;;;23.30;7.00;;;;;;5093038;28;20201;-82
2023/10/07 11:32:12;;;;;;;5.85;3.90;;;23.10;7.70;;;;;;5106601;28;20208;-83
2023/10/07 11:34:40;;;;;;;6.22;3.70;;;22.90;8.50;;;;;;5097935;28;20546;-82
2023/10/07 11:37:13;;;;;;;6.03;4.32;;;23.20;7.40;;;;;;5095990;28;20242;-83
2023/10/07 11:39:46;;;;;;;6.50;4.07;;;23.00;6.20;;;;;;5106419;27;20196;-83
2023/10/07 11:42:14;;;;;;;6.45;3.88;;;23.10;5.90;;;;;;5100200;28;20193;-83
2023/10/07 11:44:42;;;;;;;4.72;3.65;;;22.90;7.40;;;;;;5098925;27;20198;-83
2023/10/07 11:47:11;;;;;;;6.07;3.90;;;22.80;6.40;;;;;;5104095;28;20727;-83
2023/10/07 11:49:38;;;;;;;6.68;3.90;;;22.80;5.20;;;;;;5105223;27;20195;-83
2023/10/07 11:52:05;;;;;;;5.85;3.90;;;22.60;3.90;;;;;;5102384;28;20220;-83
2023/10/07 11:54:35;;;;;;;6.43;3.88;;;22.30;5.80;;;;;;5103216;27;20219;-83
2023/10/07 11:57:05;;;;;;;5.82;3.38;;;22.10;4.70;;;;;;5112918;27;20191;-83
2023/10/07 11:59:33;;;;;;;6.93;4.13;;;21.80;5.10;;;;;;5095659;28;20282;-83
2023/10/07 12:02:00;;;;;;;6.82;3.60;;;21.60;5.80;;;;;;5101845;28;20342;-83
2023/10/07 12:04:27;;;;;;;5.30;3.83;;;21.40;6.20;;;;;;5097538;28;20563;-83
2023/10/07 12:06:54;;;;;;;5.07;3.22;;;21.50;5.60;;;;;;5097447;28;20216;-83
2023/10/07 12:09:22;;;;;;;6.07;3.90;;;21.50;6.00;;;;;;5099950;28;20203;-82
2023/10/07 12:11:50;;;;;;;5.47;3.28;;;21.50;6.60;;;;;;5099399;28;20253;-83
2023/10/07 12:14:20;;;;;;;6.95;3.60;;;21.70;7.30;;;;;;5091860;28;20222;-82
2023/10/07 12:16:47;;;;;;;5.30;3.60;;;21.70;7.20;;;;;;5099966;28;20279;-83
2023/10/07 12:19:17;;;;;;;5.65;3.55;;;21.80;7.70;;;;;;5112645;27;20206;-83
2023/10/07 12:21:47;;;;;;;4.90;3.80;;;21.70;8.50;;;;;;5102715;27;20222;-83
2023/10/07 12:24:16;;;;;;;5.20;3.70;;;21.80;8.60;;;;;;5101141;27;20691;-83
2023/10/07 12:26:45;;;;;;;7.57;3.67;;;21.80;9.00;;;;;;5101773;28;20661;-83
2023/10/07 12:29:12;;;;;;;6.80;3.47;;;21.90;8.80;;;;;;5098730;28;20196;-82
2023/10/07 12:31:42;;;;;;;4.47;3.35;;;21.80;9.00;;;;;;5095106;28;20201;-83
2023/10/07 12:34:10;;;;;;;4.72;3.13;;;21.80;8.30;;;;;;5095958;28;20192;-83
2023/10/07 12:36:38;;;;;;;4.78;3.22;;;21.70;8.90;;;;;;5094551;28;20268;-83
2023/10/07 12:39:10;;;;;;;5.53;3.30;;;21.70;8.70;;;;;;5097838;27;20197;-83
2023/10/07 12:41:37;;;;;;;6.13;3.42;;;21.70;9.10;;;;;;5102481;28;20215;-83
2023/10/07 12:44:08;;;;;;;6.68;3.60;;;21.60;8.90;;;;;;5104058;27;20287;-83
2023/10/07 12:46:36;;;;;;;7.05;3.55;;;21.70;8.20;;;;;;5110438;27;20193;-83
2023/10/07 12:49:10;;;;;;;6.25;3.40;;;21.80;8.00;;;;;;5105752;27;20237;-83
2023/10/07 12:51:42;;;;;;;5.15;3.88;;;21.80;7.40;;;;;;5103290;28;20216;-83
2023/10/07 12:54:09;;;;;;;4.07;3.20;;;21.80;7.80;;;;;;5095702;28;20326;-83
2023/10/07 12:56:37;;;;;;;6.60;3.63;;;21.80;8.00;;;;;;5099224;28;20193;-83
2023/10/07 12:59:07;;;;;;;6.07;3.40;;;21.90;8.50;;;;;;5099518;28;20193;-83
2023/10/07 13:01:35;;;;;;;8.07;3.70;;;21.80;8.80;;;;;;5097395;28;20231;-83
2023/10/07 13:04:02;;;;;;;3.65;2.90;;;21.80;8.30;;;;;;5092862;28;20237;-83
2023/10/07 13:06:30;;;;;;;6.63;3.42;;;21.90;8.90;;;;;;5096655;28;20209;-82
2023/10/07 13:09:03;;;;;;;4.50;3.30;;;21.80;9.50;;;;;;5094799;28;20210;-83
2023/10/07 13:11:30;;;;;;;4.60;3.25;;;21.80;8.00;;;;;;5097786;28;20195;-82
2023/10/07 13:13:57;;;;;;;5.05;3.40;;;21.70;7.90;;;;;;5103845;28;20196;-82
2023/10/07 13:16:24;;;;;;;4.93;3.70;;;21.70;9.10;;;;;;5098252;28;20547;-82
2023/10/07 13:18:51;;;;;;;5.95;3.30;;;21.80;8.00;;;;;;5108582;27;20193;-82